createdAt,value
2018-12-21T00:03:28.061Z,99.20
2018-12-21T00:08:29.611Z,99.50
2018-12-21T00:13:31.063Z,99.50
2018-12-21T00:18:32.471Z,99.20
2018-12-21T00:23:33.862Z,99.10
2018-12-21T00:28:35.263Z,99.20
2018-12-21T00:33:42.711Z,99.40
2018-12-21T00:38:50.132Z,99.30
2018-12-21T00:43:53.672Z,99.50
2018-12-21T00:48:55.042Z,99.40
2018-12-21T00:53:56.507Z,99.50
2018-12-21T00:58:57.965Z,99.40
2018-12-21T01:03:59.364Z,99.40
2018-12-21T01:09:00.756Z,99.50
2018-12-21T01:14:02.148Z,99.40
2018-12-21T01:19:03.552Z,99.20
2018-12-21T01:24:05.204Z,99.10
2018-12-21T01:29:06.515Z,99.20
2018-12-21T01:34:07.726Z,99.10
2018-12-21T01:39:09.081Z,99.40
2018-12-21T01:44:12.262Z,99.50
2018-12-21T01:49:13.709Z,99.50
2018-12-21T01:54:15.255Z,99.40
2018-12-21T01:59:16.921Z,99.50
2018-12-21T02:04:18.330Z,99.50
2018-12-21T02:09:20.132Z,99.50
2018-12-21T02:14:21.546Z,99.30
2018-12-21T02:19:23.017Z,99.20
2018-12-21T02:24:24.431Z,99.30
2018-12-21T02:29:26.848Z,99.20
2018-12-21T02:34:28.300Z,99.30
2018-12-21T02:39:29.725Z,99.10
2018-12-21T02:44:31.218Z,99.10
2018-12-21T02:49:32.641Z,99.10
2018-12-21T02:54:34.142Z,98.80
2018-12-21T02:59:35.576Z,98.80
2018-12-21T03:04:37.037Z,98.70
2018-12-21T03:09:38.479Z,98.80
2018-12-21T03:14:40.042Z,98.80
2018-12-21T03:19:41.420Z,98.70
2018-12-21T03:24:42.871Z,98.50
2018-12-21T03:29:44.383Z,98.60
2018-12-21T03:34:45.780Z,98.50
2018-12-21T03:39:47.281Z,98.60
2018-12-21T03:44:48.707Z,98.70
2018-12-21T03:49:50.168Z,98.70
2018-12-21T03:54:51.559Z,98.80
2018-12-21T03:59:52.974Z,98.80
2018-12-21T04:04:54.385Z,98.80
2018-12-21T04:09:55.786Z,98.60
2018-12-21T04:14:57.318Z,98.80
2018-12-21T04:19:58.832Z,98.70
2018-12-21T04:25:00.263Z,98.70
2018-12-21T04:30:01.787Z,98.70
2018-12-21T04:35:03.665Z,98.70
2018-12-21T04:40:05.960Z,98.60
2018-12-21T04:45:07.413Z,98.70
2018-12-21T04:50:08.736Z,98.90
2018-12-21T04:55:10.068Z,99.00
2018-12-21T05:00:11.460Z,98.90
2018-12-21T05:05:12.666Z,98.90
2018-12-21T05:10:14.252Z,98.80
2018-12-21T05:15:15.569Z,98.80
2018-12-21T05:20:17.006Z,99.30
2018-12-21T05:25:18.365Z,99.90
2018-12-21T05:30:19.573Z,99.90
2018-12-21T05:35:20.779Z,99.90
2018-12-21T05:40:22.082Z,99.90
2018-12-21T05:45:23.360Z,99.90
2018-12-21T05:50:24.568Z,99.90
2018-12-21T05:55:25.770Z,99.90
2018-12-21T06:00:26.981Z,99.90
2018-12-21T06:05:28.213Z,99.90
2018-12-21T06:10:29.436Z,99.90
2018-12-21T06:15:30.642Z,99.90
2018-12-21T06:20:31.986Z,99.90
2018-12-21T06:25:33.218Z,99.90
2018-12-21T06:30:34.570Z,99.90
2018-12-21T06:35:35.783Z,99.90
2018-12-21T06:40:37.117Z,99.90
2018-12-21T06:45:38.341Z,99.90
2018-12-21T06:50:39.638Z,99.90
2018-12-21T06:55:40.893Z,99.90
2018-12-21T07:00:42.121Z,99.90
2018-12-21T07:05:43.352Z,99.90
2018-12-21T07:10:44.678Z,99.90
2018-12-21T07:15:45.913Z,99.90
2018-12-21T07:20:47.145Z,99.90
2018-12-21T07:25:48.465Z,99.90
2018-12-21T07:30:50.002Z,99.90
2018-12-21T07:35:51.202Z,99.90
2018-12-21T07:40:52.631Z,99.90
2018-12-21T07:45:53.936Z,99.90
2018-12-21T07:50:55.276Z,99.90
2018-12-21T07:55:56.613Z,99.90
2018-12-21T08:00:57.825Z,99.90
2018-12-21T08:05:59.090Z,99.90
2018-12-21T08:11:00.620Z,99.90
2018-12-21T08:16:02.058Z,99.90
2018-12-21T08:21:03.406Z,99.90
2018-12-21T08:26:04.718Z,99.90
2018-12-21T08:31:06.009Z,99.90
2018-12-21T08:36:07.277Z,99.90
2018-12-21T08:41:08.496Z,99.90
2018-12-21T08:46:09.756Z,99.90
2018-12-21T08:51:11.121Z,99.90
2018-12-21T08:56:12.354Z,99.90
2018-12-21T09:01:13.585Z,99.90
2018-12-21T09:06:18.528Z,99.90
2018-12-21T09:11:18.050Z,99.90
2018-12-21T09:16:19.396Z,99.90
2018-12-21T09:21:20.648Z,99.90
2018-12-21T09:26:21.873Z,99.90
2018-12-21T09:31:23.114Z,99.90
2018-12-21T09:36:24.473Z,99.90
2018-12-21T09:41:25.855Z,99.90
2018-12-21T09:46:27.121Z,99.90
2018-12-21T09:51:28.357Z,99.90
2018-12-21T09:56:29.605Z,99.90
2018-12-21T10:01:30.894Z,99.90
2018-12-21T10:06:32.129Z,99.90
2018-12-21T10:11:33.356Z,99.90
2018-12-21T10:16:34.635Z,99.90
2018-12-21T10:21:36.117Z,99.90
2018-12-21T10:26:37.464Z,99.90
2018-12-21T10:31:38.733Z,99.90
2018-12-21T10:36:39.970Z,99.90
2018-12-21T10:41:41.252Z,99.90
2018-12-21T10:46:42.501Z,99.90
2018-12-21T10:51:43.742Z,99.90
2018-12-21T10:56:44.985Z,99.90
2018-12-21T11:01:46.212Z,99.90
2018-12-21T11:06:47.497Z,99.90
2018-12-21T11:11:48.762Z,99.90
2018-12-21T11:16:50.024Z,99.90
2018-12-21T11:21:51.295Z,99.90
2018-12-21T11:26:52.529Z,99.20
2018-12-21T11:31:53.894Z,99.80
2018-12-21T11:36:55.141Z,99.30
2018-12-21T11:41:56.370Z,98.80
2018-12-21T11:46:57.610Z,98.20
2018-12-21T11:51:58.841Z,98.80
2018-12-21T11:57:00.082Z,98.60
2018-12-21T12:02:01.486Z,97.80
2018-12-21T12:07:02.724Z,98.20
2018-12-21T12:12:03.973Z,97.20
2018-12-21T12:17:05.305Z,98.80
2018-12-21T12:22:06.569Z,98.10
2018-12-21T12:27:08.034Z,99.40
2018-12-21T12:32:09.278Z,98.90
2018-12-21T12:37:10.515Z,99.00
2018-12-21T12:42:11.766Z,99.70
2018-12-21T12:47:13.202Z,99.50
2018-12-21T12:52:14.638Z,99.30
2018-12-21T12:57:16.043Z,98.90
2018-12-21T13:02:17.859Z,98.40
2018-12-21T13:07:19.332Z,98.50
2018-12-21T13:12:20.816Z,98.00
2018-12-21T13:17:22.347Z,99.70
2018-12-21T13:22:23.811Z,99.30
2018-12-21T13:27:25.241Z,97.80
2018-12-21T13:32:26.713Z,97.70
2018-12-21T13:37:28.168Z,99.90
2018-12-21T13:42:29.660Z,99.90
2018-12-21T13:47:31.165Z,99.90
2018-12-21T13:52:32.634Z,99.90
2018-12-21T13:57:34.154Z,99.90
2018-12-21T14:02:35.737Z,99.90
2018-12-21T14:07:37.192Z,99.90
2018-12-21T14:12:38.761Z,99.90
2018-12-21T14:17:40.239Z,99.90
2018-12-21T14:22:41.713Z,99.90
2018-12-21T14:27:43.222Z,99.90
2018-12-21T14:32:44.646Z,99.90
2018-12-21T14:37:46.162Z,99.90
2018-12-21T14:42:47.663Z,99.90
2018-12-21T14:47:49.154Z,99.90
2018-12-21T14:52:50.590Z,99.90
2018-12-21T14:57:52.002Z,99.90
2018-12-21T15:02:53.501Z,99.90
2018-12-21T15:07:55.003Z,99.90
2018-12-21T15:12:56.563Z,99.90
2018-12-21T15:17:58.017Z,99.90
2018-12-21T15:22:59.543Z,99.90
2018-12-21T15:28:01.130Z,99.90
2018-12-21T15:33:02.383Z,99.90
2018-12-21T15:38:03.747Z,99.90
2018-12-21T15:43:04.995Z,99.90
2018-12-21T15:48:06.243Z,99.90
2018-12-21T15:53:07.503Z,99.90
2018-12-21T15:58:08.748Z,99.90
2018-12-21T16:03:10.098Z,99.90
2018-12-21T16:08:11.489Z,99.90
2018-12-21T16:13:12.769Z,99.90
2018-12-21T16:18:14.014Z,99.90
2018-12-21T16:23:15.265Z,99.90
2018-12-21T16:28:16.531Z,99.90
2018-12-21T16:33:17.782Z,99.90
2018-12-21T16:38:19.073Z,99.90
2018-12-21T16:43:22.061Z,99.90
2018-12-21T16:48:23.538Z,99.90
2018-12-21T16:53:24.799Z,99.90
2018-12-21T16:58:26.087Z,99.90
2018-12-21T17:03:27.349Z,99.90
2018-12-21T17:08:28.669Z,99.90
2018-12-21T17:13:29.909Z,99.90
2018-12-21T17:18:31.511Z,99.90
2018-12-21T17:23:32.778Z,99.00
2018-12-21T17:28:34.039Z,96.50
2018-12-21T17:33:35.249Z,94.70
2018-12-21T17:38:36.498Z,94.20
2018-12-21T17:43:37.781Z,95.00
2018-12-21T17:48:39.053Z,93.70
2018-12-21T17:53:40.303Z,95.40
2018-12-21T17:58:41.738Z,94.30
2018-12-21T18:03:45.450Z,93.90
2018-12-21T18:08:46.996Z,95.40
2018-12-21T18:13:48.497Z,93.80
2018-12-21T18:18:49.985Z,93.30
2018-12-21T18:23:51.461Z,93.10
2018-12-21T18:28:52.904Z,92.50
2018-12-21T18:33:54.448Z,92.60
2018-12-21T18:38:56.005Z,92.80
2018-12-21T18:43:57.496Z,93.40
2018-12-21T18:48:58.942Z,91.60
2018-12-21T18:54:00.419Z,90.50
2018-12-21T18:59:01.927Z,90.60
2018-12-21T19:04:03.378Z,90.10
2018-12-21T19:09:05.149Z,89.40
2018-12-21T19:14:06.668Z,89.50
2018-12-21T19:19:08.123Z,89.70
2018-12-21T19:24:09.636Z,89.10
2018-12-21T19:29:11.204Z,88.90
2018-12-21T19:34:12.680Z,88.30
2018-12-21T19:39:14.188Z,88.90
2018-12-21T19:44:15.775Z,88.70
2018-12-21T19:49:17.382Z,88.60
2018-12-21T19:54:19.028Z,89.00
2018-12-21T19:59:20.525Z,88.80
2018-12-21T20:04:22.369Z,89.10
2018-12-21T20:09:24.018Z,89.30
2018-12-21T20:14:25.526Z,89.30
2018-12-21T20:19:27.010Z,89.50
2018-12-21T20:24:28.568Z,88.90
2018-12-21T20:29:30.057Z,89.50
2018-12-21T20:34:31.768Z,89.00
2018-12-21T20:39:33.885Z,89.20
2018-12-21T20:44:35.385Z,88.90
2018-12-21T20:49:36.832Z,90.30
2018-12-21T20:54:38.363Z,90.70
2018-12-21T20:59:39.987Z,91.70
2018-12-21T21:04:41.438Z,94.30
2018-12-21T21:09:42.923Z,97.30
2018-12-21T21:14:44.436Z,98.80
2018-12-21T21:19:45.882Z,98.80
2018-12-21T21:24:47.372Z,98.40
2018-12-21T21:29:48.829Z,98.40
2018-12-21T21:34:50.281Z,98.50
2018-12-21T21:39:51.794Z,97.80
2018-12-21T21:44:53.148Z,97.50
2018-12-21T21:49:54.417Z,96.00
2018-12-21T21:54:55.799Z,96.10
2018-12-21T21:59:57.033Z,94.90
2018-12-21T22:04:58.278Z,94.60
2018-12-21T22:09:59.544Z,95.50
2018-12-21T22:15:00.822Z,95.40
2018-12-21T22:20:04.741Z,95.30
2018-12-21T22:25:06.295Z,94.60
2018-12-21T22:30:08.562Z,94.20
2018-12-21T22:35:09.870Z,94.30
2018-12-21T22:40:11.163Z,94.70
2018-12-21T22:45:12.571Z,95.80
2018-12-21T22:50:13.853Z,95.70
2018-12-21T22:55:15.097Z,96.20
2018-12-21T23:00:18.667Z,98.00
2018-12-21T23:05:19.977Z,97.30
2018-12-21T23:10:22.158Z,95.90
2018-12-21T23:15:23.415Z,96.10
2018-12-21T23:20:24.640Z,94.70
2018-12-21T23:25:25.886Z,93.40
2018-12-21T23:30:27.111Z,92.10
2018-12-21T23:35:28.333Z,90.80
2018-12-21T23:40:29.522Z,89.30
2018-12-21T23:45:30.758Z,88.00
2018-12-21T23:50:32.009Z,87.30
2018-12-21T23:55:33.255Z,85.20
